Dudley, Iowa
Current Conditions -  °F | °C
As of 1:53 PM on Saturday 25 Oct 2014 (Local Time) from KOTM Reporting Station
Clear Clear  
Wind Chill: 72°   Ceiling: Unl
Heat Index: 72°   Visibility: 10mi
Dew Point: 41°   Wind: 9mph
Humidity: 33%   Direction: 350°N
Pressure: 30.06"   Gusts: NA
Location:  41.0803°N, 92.3054°W
Report Text: KOTM 251853Z AUTO 35008KT 10SM CLR 22/05 A3006 RMK AO2 SLP176 T02220050
Loading
Personal Weather Stations






























Interactive Weather Map
Tropical Storm Tracking
New forecast layout! Learn more

10-Day Weather Forecast

Advertisements
Track Severe Weather on mobile